sensor_id;sensor_type;location;lat;lon;timestamp;temperature;humidity
23719;DHT22;43322;52.230;5.702;2023-04-26T00:01:49;3.30;99.90
23719;DHT22;43322;52.230;5.702;2023-04-26T00:04:17;3.30;99.90
23719;DHT22;43322;52.230;5.702;2023-04-26T00:06:45;3.20;99.90
23719;DHT22;43322;52.230;5.702;2023-04-26T00:09:13;3.20;99.90
23719;DHT22;43322;52.230;5.702;2023-04-26T00:11:40;3.10;99.90
23719;DHT22;43322;52.230;5.702;2023-04-26T00:14:07;3.10;99.90
23719;DHT22;43322;52.230;5.702;2023-04-26T00:16:33;3.10;99.90
23719;DHT22;43322;52.230;5.702;2023-04-26T00:19:00;3.10;99.90
23719;DHT22;43322;52.230;5.702;2023-04-26T00:21:28;3.00;99.90
23719;DHT22;43322;52.230;5.702;2023-04-26T00:23:56;3.00;99.90
23719;DHT22;43322;52.230;5.702;2023-04-26T00:26:23;2.90;99.90
23719;DHT22;43322;52.230;5.702;2023-04-26T00:28:49;2.90;99.90
23719;DHT22;43322;52.230;5.702;2023-04-26T00:31:16;2.90;99.90
23719;DHT22;43322;52.230;5.702;2023-04-26T00:33:43;2.90;99.90
23719;DHT22;43322;52.230;5.702;2023-04-26T00:36:09;2.90;99.90
23719;DHT22;43322;52.230;5.702;2023-04-26T00:38:38;2.90;99.90
23719;DHT22;43322;52.230;5.702;2023-04-26T00:41:06;2.90;99.90
23719;DHT22;43322;52.230;5.702;2023-04-26T00:43:33;2.90;99.90
23719;DHT22;43322;52.230;5.702;2023-04-26T00:46:00;2.80;99.90
23719;DHT22;43322;52.230;5.702;2023-04-26T00:48:27;2.80;99.90
23719;DHT22;43322;52.230;5.702;2023-04-26T00:50:54;2.70;99.90
23719;DHT22;43322;52.230;5.702;2023-04-26T00:53:21;2.70;99.90
23719;DHT22;43322;52.230;5.702;2023-04-26T00:55:48;2.70;99.90
23719;DHT22;43322;52.230;5.702;2023-04-26T00:58:17;2.70;99.90
23719;DHT22;43322;52.230;5.702;2023-04-26T01:00:43;2.60;99.90
23719;DHT22;43322;52.230;5.702;2023-04-26T01:03:10;2.70;99.90
23719;DHT22;43322;52.230;5.702;2023-04-26T01:05:37;2.60;99.90
23719;DHT22;43322;52.230;5.702;2023-04-26T01:08:06;2.60;99.90
23719;DHT22;43322;52.230;5.702;2023-04-26T01:10:34;2.60;99.90
23719;DHT22;43322;52.230;5.702;2023-04-26T01:13:01;2.60;99.90
23719;DHT22;43322;52.230;5.702;2023-04-26T01:15:29;2.40;99.90
23719;DHT22;43322;52.230;5.702;2023-04-26T01:17:58;2.40;99.90
23719;DHT22;43322;52.230;5.702;2023-04-26T01:20:24;2.50;99.90
23719;DHT22;43322;52.230;5.702;2023-04-26T01:22:52;2.50;99.90
23719;DHT22;43322;52.230;5.702;2023-04-26T01:25:20;2.50;99.90
23719;DHT22;43322;52.230;5.702;2023-04-26T01:27:46;2.50;99.90
23719;DHT22;43322;52.230;5.702;2023-04-26T01:30:13;2.50;99.90
23719;DHT22;43322;52.230;5.702;2023-04-26T01:32:40;2.40;99.90
23719;DHT22;43322;52.230;5.702;2023-04-26T01:35:07;2.40;99.90
23719;DHT22;43322;52.230;5.702;2023-04-26T01:37:34;2.40;99.90
23719;DHT22;43322;52.230;5.702;2023-04-26T01:40:02;2.40;99.90
23719;DHT22;43322;52.230;5.702;2023-04-26T01:42:31;2.40;99.90
23719;DHT22;43322;52.230;5.702;2023-04-26T01:44:58;2.40;99.90
23719;DHT22;43322;52.230;5.702;2023-04-26T01:47:24;2.50;99.90
23719;DHT22;43322;52.230;5.702;2023-04-26T01:49:51;2.50;99.90
23719;DHT22;43322;52.230;5.702;2023-04-26T01:52:21;2.40;99.90
23719;DHT22;43322;52.230;5.702;2023-04-26T01:54:48;2.40;99.90
23719;DHT22;43322;52.230;5.702;2023-04-26T01:57:17;2.30;99.90
23719;DHT22;43322;52.230;5.702;2023-04-26T01:59:43;2.30;99.90
23719;DHT22;43322;52.230;5.702;2023-04-26T02:02:10;2.20;99.90
23719;DHT22;43322;52.230;5.702;2023-04-26T02:04:36;2.30;99.90
23719;DHT22;43322;52.230;5.702;2023-04-26T02:07:03;2.20;99.90
23719;DHT22;43322;52.230;5.702;2023-04-26T02:09:30;3.30;99.90
23719;DHT22;43322;52.230;5.702;2023-04-26T02:11:57;2.30;99.90
23719;DHT22;43322;52.230;5.702;2023-04-26T02:14:25;2.30;99.90
23719;DHT22;43322;52.230;5.702;2023-04-26T02:16:52;2.30;99.90
23719;DHT22;43322;52.230;5.702;2023-04-26T02:19:18;2.30;99.90
23719;DHT22;43322;52.230;5.702;2023-04-26T02:21:53;2.20;99.90
23719;DHT22;43322;52.230;5.702;2023-04-26T02:24:21;2.20;99.90
23719;DHT22;43322;52.230;5.702;2023-04-26T02:26:48;2.10;99.90
23719;DHT22;43322;52.230;5.702;2023-04-26T02:29:15;2.10;99.90
23719;DHT22;43322;52.230;5.702;2023-04-26T02:31:43;2.10;99.90
23719;DHT22;43322;52.230;5.702;2023-04-26T02:34:09;2.10;99.90
23719;DHT22;43322;52.230;5.702;2023-04-26T02:36:36;2.10;99.90
23719;DHT22;43322;52.230;5.702;2023-04-26T02:39:03;2.10;99.90
23719;DHT22;43322;52.230;5.702;2023-04-26T02:41:30;2.00;99.90
23719;DHT22;43322;52.230;5.702;2023-04-26T02:43:57;2.00;99.90
23719;DHT22;43322;52.230;5.702;2023-04-26T02:46:24;2.00;99.90
23719;DHT22;43322;52.230;5.702;2023-04-26T02:48:52;2.00;99.90
23719;DHT22;43322;52.230;5.702;2023-04-26T02:51:19;1.90;99.90
23719;DHT22;43322;52.230;5.702;2023-04-26T02:53:45;1.90;99.90
23719;DHT22;43322;52.230;5.702;2023-04-26T02:56:12;1.80;99.90
23719;DHT22;43322;52.230;5.702;2023-04-26T02:58:39;1.90;99.90
23719;DHT22;43322;52.230;5.702;2023-04-26T03:01:05;1.90;99.90
23719;DHT22;43322;52.230;5.702;2023-04-26T03:03:33;1.90;99.90
23719;DHT22;43322;52.230;5.702;2023-04-26T03:06:01;1.90;99.90
23719;DHT22;43322;52.230;5.702;2023-04-26T03:08:28;1.90;99.90
23719;DHT22;43322;52.230;5.702;2023-04-26T03:10:55;1.90;99.90
23719;DHT22;43322;52.230;5.702;2023-04-26T03:13:22;1.70;99.90
23719;DHT22;43322;52.230;5.702;2023-04-26T03:15:48;1.70;99.90
23719;DHT22;43322;52.230;5.702;2023-04-26T03:18:17;1.70;99.90
23719;DHT22;43322;52.230;5.702;2023-04-26T03:20:45;1.70;99.90
23719;DHT22;43322;52.230;5.702;2023-04-26T03:23:13;1.70;99.90
23719;DHT22;43322;52.230;5.702;2023-04-26T03:25:39;1.80;99.90
23719;DHT22;43322;52.230;5.702;2023-04-26T03:28:06;1.70;99.90
23719;DHT22;43322;52.230;5.702;2023-04-26T03:30:32;1.70;99.90
23719;DHT22;43322;52.230;5.702;2023-04-26T03:32:59;1.70;99.90
23719;DHT22;43322;52.230;5.702;2023-04-26T03:35:26;1.70;99.90
23719;DHT22;43322;52.230;5.702;2023-04-26T03:37:52;1.70;99.90
23719;DHT22;43322;52.230;5.702;2023-04-26T03:40:20;1.70;99.90
23719;DHT22;43322;52.230;5.702;2023-04-26T03:42:47;1.70;99.90
23719;DHT22;43322;52.230;5.702;2023-04-26T03:45:14;1.60;99.90
23719;DHT22;43322;52.230;5.702;2023-04-26T03:47:40;1.50;99.90
23719;DHT22;43322;52.230;5.702;2023-04-26T03:50:08;1.50;99.90
23719;DHT22;43322;52.230;5.702;2023-04-26T03:52:34;1.50;99.90
23719;DHT22;43322;52.230;5.702;2023-04-26T03:55:01;1.50;99.90
23719;DHT22;43322;52.230;5.702;2023-04-26T03:57:30;1.50;99.90
23719;DHT22;43322;52.230;5.702;2023-04-26T03:59:56;1.60;99.90
23719;DHT22;43322;52.230;5.702;2023-04-26T04:02:23;1.50;99.90
23719;DHT22;43322;52.230;5.702;2023-04-26T04:04:50;1.50;99.90
23719;DHT22;43322;52.230;5.702;2023-04-26T04:07:16;1.60;99.90
23719;DHT22;43322;52.230;5.702;2023-04-26T04:09:44;1.50;99.90
23719;DHT22;43322;52.230;5.702;2023-04-26T04:12:10;1.50;99.90
23719;DHT22;43322;52.230;5.702;2023-04-26T04:14:38;1.50;99.90
23719;DHT22;43322;52.230;5.702;2023-04-26T04:17:05;1.40;99.90
23719;DHT22;43322;52.230;5.702;2023-04-26T04:19:32;1.40;99.90
23719;DHT22;43322;52.230;5.702;2023-04-26T04:21:59;1.30;99.90
23719;DHT22;43322;52.230;5.702;2023-04-26T04:24:26;1.40;99.90
23719;DHT22;43322;52.230;5.702;2023-04-26T04:26:52;1.30;99.90
23719;DHT22;43322;52.230;5.702;2023-04-26T04:29:20;1.30;99.90
23719;DHT22;43322;52.230;5.702;2023-04-26T04:31:48;1.30;99.90
23719;DHT22;43322;52.230;5.702;2023-04-26T04:34:15;1.30;99.90
23719;DHT22;43322;52.230;5.702;2023-04-26T04:36:41;1.30;99.90
23719;DHT22;43322;52.230;5.702;2023-04-26T04:39:08;1.30;99.90
23719;DHT22;43322;52.230;5.702;2023-04-26T04:41:40;1.30;99.90
23719;DHT22;43322;52.230;5.702;2023-04-26T04:44:12;1.30;99.90
23719;DHT22;43322;52.230;5.702;2023-04-26T04:46:40;1.40;99.90
23719;DHT22;43322;52.230;5.702;2023-04-26T04:49:08;1.40;99.90
23719;DHT22;43322;52.230;5.702;2023-04-26T04:51:35;1.50;99.90
23719;DHT22;43322;52.230;5.702;2023-04-26T04:54:09;1.60;99.90
23719;DHT22;43322;52.230;5.702;2023-04-26T04:56:36;1.60;99.90
23719;DHT22;43322;52.230;5.702;2023-04-26T04:59:03;1.70;99.90
23719;DHT22;43322;52.230;5.702;2023-04-26T05:01:30;1.70;99.90
23719;DHT22;43322;52.230;5.702;2023-04-26T05:03:57;1.80;99.90
23719;DHT22;43322;52.230;5.702;2023-04-26T05:06:25;1.80;99.90
23719;DHT22;43322;52.230;5.702;2023-04-26T05:08:53;1.80;99.90
23719;DHT22;43322;52.230;5.702;2023-04-26T05:11:20;1.80;99.90
23719;DHT22;43322;52.230;5.702;2023-04-26T05:13:47;1.90;99.90
23719;DHT22;43322;52.230;5.702;2023-04-26T05:16:14;1.90;99.90
23719;DHT22;43322;52.230;5.702;2023-04-26T05:18:41;1.90;99.90
23719;DHT22;43322;52.230;5.702;2023-04-26T05:21:08;1.90;99.90
23719;DHT22;43322;52.230;5.702;2023-04-26T05:23:36;1.90;99.90
23719;DHT22;43322;52.230;5.702;2023-04-26T05:26:03;1.40;99.90
23719;DHT22;43322;52.230;5.702;2023-04-26T05:28:30;1.90;99.90
23719;DHT22;43322;52.230;5.702;2023-04-26T05:30:57;1.80;99.90
23719;DHT22;43322;52.230;5.702;2023-04-26T05:33:24;1.80;99.90
23719;DHT22;43322;52.230;5.702;2023-04-26T05:35:50;1.90;99.90
23719;DHT22;43322;52.230;5.702;2023-04-26T05:38:18;2.00;99.90
23719;DHT22;43322;52.230;5.702;2023-04-26T05:40:47;2.10;99.90
23719;DHT22;43322;52.230;5.702;2023-04-26T05:43:14;2.20;99.90
23719;DHT22;43322;52.230;5.702;2023-04-26T05:45:49;2.40;99.90
23719;DHT22;43322;52.230;5.702;2023-04-26T05:48:16;2.60;99.90
23719;DHT22;43322;52.230;5.702;2023-04-26T05:50:42;2.70;99.90
23719;DHT22;43322;52.230;5.702;2023-04-26T05:53:09;2.70;99.90
23719;DHT22;43322;52.230;5.702;2023-04-26T05:55:36;2.80;99.90
23719;DHT22;43322;52.230;5.702;2023-04-26T05:58:04;2.90;99.90
23719;DHT22;43322;52.230;5.702;2023-04-26T06:00:30;2.90;99.90
23719;DHT22;43322;52.230;5.702;2023-04-26T06:02:57;3.00;99.90
23719;DHT22;43322;52.230;5.702;2023-04-26T06:05:24;3.00;99.90
23719;DHT22;43322;52.230;5.702;2023-04-26T06:07:51;3.00;99.90
23719;DHT22;43322;52.230;5.702;2023-04-26T06:10:18;2.90;99.90
23719;DHT22;43322;52.230;5.702;2023-04-26T06:12:46;3.10;99.90
23719;DHT22;43322;52.230;5.702;2023-04-26T06:15:14;3.30;99.90
23719;DHT22;43322;52.230;5.702;2023-04-26T06:17:41;3.50;99.90
23719;DHT22;43322;52.230;5.702;2023-04-26T06:20:09;3.70;99.90
23719;DHT22;43322;52.230;5.702;2023-04-26T06:22:36;3.90;99.90
23719;DHT22;43322;52.230;5.702;2023-04-26T06:25:05;4.10;99.90
23719;DHT22;43322;52.230;5.702;2023-04-26T06:27:32;4.20;99.90
23719;DHT22;43322;52.230;5.702;2023-04-26T06:29:59;4.30;99.90
23719;DHT22;43322;52.230;5.702;2023-04-26T06:32:27;4.50;99.90
23719;DHT22;43322;52.230;5.702;2023-04-26T06:34:54;4.60;99.90
23719;DHT22;43322;52.230;5.702;2023-04-26T06:37:20;4.60;99.90
23719;DHT22;43322;52.230;5.702;2023-04-26T06:39:47;4.70;99.90
23719;DHT22;43322;52.230;5.702;2023-04-26T06:42:13;4.70;99.90
23719;DHT22;43322;52.230;5.702;2023-04-26T06:44:41;4.80;99.90
23719;DHT22;43322;52.230;5.702;2023-04-26T06:47:07;5.20;99.90
23719;DHT22;43322;52.230;5.702;2023-04-26T06:49:37;5.00;99.90
23719;DHT22;43322;52.230;5.702;2023-04-26T06:52:04;5.10;99.90
23719;DHT22;43322;52.230;5.702;2023-04-26T06:54:31;5.20;99.90
23719;DHT22;43322;52.230;5.702;2023-04-26T06:56:58;5.30;99.90
23719;DHT22;43322;52.230;5.702;2023-04-26T06:59:25;5.40;99.90
23719;DHT22;43322;52.230;5.702;2023-04-26T07:01:52;5.50;99.90
23719;DHT22;43322;52.230;5.702;2023-04-26T07:04:19;5.50;99.90
23719;DHT22;43322;52.230;5.702;2023-04-26T07:06:47;5.60;99.90
23719;DHT22;43322;52.230;5.702;2023-04-26T07:09:14;5.60;99.90
23719;DHT22;43322;52.230;5.702;2023-04-26T07:11:41;5.70;99.90
23719;DHT22;43322;52.230;5.702;2023-04-26T07:14:09;5.90;99.90
23719;DHT22;43322;52.230;5.702;2023-04-26T07:16:37;6.10;99.90
23719;DHT22;43322;52.230;5.702;2023-04-26T07:19:03;6.30;99.90
23719;DHT22;43322;52.230;5.702;2023-04-26T07:21:31;6.10;99.90
23719;DHT22;43322;52.230;5.702;2023-04-26T07:23:59;6.70;99.90
23719;DHT22;43322;52.230;5.702;2023-04-26T07:26:26;6.70;99.90
23719;DHT22;43322;52.230;5.702;2023-04-26T07:28:53;6.60;99.90
23719;DHT22;43322;52.230;5.702;2023-04-26T07:31:20;6.60;99.90
23719;DHT22;43322;52.230;5.702;2023-04-26T07:33:46;6.70;99.90
23719;DHT22;43322;52.230;5.702;2023-04-26T07:36:13;6.80;99.90
23719;DHT22;43322;52.230;5.702;2023-04-26T07:38:40;7.10;99.90
23719;DHT22;43322;52.230;5.702;2023-04-26T07:41:08;7.20;99.90
23719;DHT22;43322;52.230;5.702;2023-04-26T07:43:37;7.40;99.90
23719;DHT22;43322;52.230;5.702;2023-04-26T07:46:04;7.40;99.90
23719;DHT22;43322;52.230;5.702;2023-04-26T07:48:30;7.30;99.90
23719;DHT22;43322;52.230;5.702;2023-04-26T07:51:06;7.40;99.90
23719;DHT22;43322;52.230;5.702;2023-04-26T07:53:33;7.70;99.90
23719;DHT22;43322;52.230;5.702;2023-04-26T07:56:00;8.00;99.90
23719;DHT22;43322;52.230;5.702;2023-04-26T07:58:28;8.20;99.90
23719;DHT22;43322;52.230;5.702;2023-04-26T08:00:54;8.30;99.90
23719;DHT22;43322;52.230;5.702;2023-04-26T08:03:21;8.40;99.90
23719;DHT22;43322;52.230;5.702;2023-04-26T08:05:48;8.30;99.90
23719;DHT22;43322;52.230;5.702;2023-04-26T08:08:14;8.30;99.90
23719;DHT22;43322;52.230;5.702;2023-04-26T08:10:41;8.60;99.90
23719;DHT22;43322;52.230;5.702;2023-04-26T08:13:08;8.60;99.90
23719;DHT22;43322;52.230;5.702;2023-04-26T08:15:36;8.60;99.90
23719;DHT22;43322;52.230;5.702;2023-04-26T08:18:03;8.60;99.90
23719;DHT22;43322;52.230;5.702;2023-04-26T08:20:30;8.60;99.90
23719;DHT22;43322;52.230;5.702;2023-04-26T08:22:58;8.70;99.90
23719;DHT22;43322;52.230;5.702;2023-04-26T08:25:25;8.90;99.90
23719;DHT22;43322;52.230;5.702;2023-04-26T08:27:52;9.00;99.90
23719;DHT22;43322;52.230;5.702;2023-04-26T08:30:19;9.20;99.90
23719;DHT22;43322;52.230;5.702;2023-04-26T08:32:47;9.10;99.90
23719;DHT22;43322;52.230;5.702;2023-04-26T08:35:13;8.90;99.90
23719;DHT22;43322;52.230;5.702;2023-04-26T08:37:41;9.00;99.90
23719;DHT22;43322;52.230;5.702;2023-04-26T08:40:08;9.10;99.90
23719;DHT22;43322;52.230;5.702;2023-04-26T08:42:39;8.90;99.90
23719;DHT22;43322;52.230;5.702;2023-04-26T08:45:07;8.90;99.90
23719;DHT22;43322;52.230;5.702;2023-04-26T08:47:39;8.90;99.90
23719;DHT22;43322;52.230;5.702;2023-04-26T08:50:10;8.90;99.90
23719;DHT22;43322;52.230;5.702;2023-04-26T08:52:40;9.00;99.90
23719;DHT22;43322;52.230;5.702;2023-04-26T08:55:08;9.00;99.90
23719;DHT22;43322;52.230;5.702;2023-04-26T08:57:35;8.90;99.90
23719;DHT22;43322;52.230;5.702;2023-04-26T09:00:03;8.70;99.90
23719;DHT22;43322;52.230;5.702;2023-04-26T09:02:31;8.50;99.90
23719;DHT22;43322;52.230;5.702;2023-04-26T09:05:01;8.20;99.90
23719;DHT22;43322;52.230;5.702;2023-04-26T09:07:31;8.10;99.90
23719;DHT22;43322;52.230;5.702;2023-04-26T09:09:59;8.00;99.90
23719;DHT22;43322;52.230;5.702;2023-04-26T09:12:26;8.10;99.90
23719;DHT22;43322;52.230;5.702;2023-04-26T09:14:53;8.40;99.90
23719;DHT22;43322;52.230;5.702;2023-04-26T09:17:25;8.50;99.90
23719;DHT22;43322;52.230;5.702;2023-04-26T09:19:52;8.70;99.90
23719;DHT22;43322;52.230;5.702;2023-04-26T09:22:27;9.10;99.90
23719;DHT22;43322;52.230;5.702;2023-04-26T09:24:56;9.40;99.90
23719;DHT22;43322;52.230;5.702;2023-04-26T09:27:32;9.50;99.90
23719;DHT22;43322;52.230;5.702;2023-04-26T09:30:04;9.60;99.90
23719;DHT22;43322;52.230;5.702;2023-04-26T09:32:52;9.60;99.90
23719;DHT22;43322;52.230;5.702;2023-04-26T09:35:28;9.60;99.90
23719;DHT22;43322;52.230;5.702;2023-04-26T09:37:57;9.40;99.90
23719;DHT22;43322;52.230;5.702;2023-04-26T09:40:30;9.40;99.90
23719;DHT22;43322;52.230;5.702;2023-04-26T09:42:58;9.60;99.90
23719;DHT22;43322;52.230;5.702;2023-04-26T09:45:24;9.80;99.90
23719;DHT22;43322;52.230;5.702;2023-04-26T09:47:51;10.10;99.90
23719;DHT22;43322;52.230;5.702;2023-04-26T09:50:28;9.80;99.90
23719;DHT22;43322;52.230;5.702;2023-04-26T09:52:55;9.60;99.90
23719;DHT22;43322;52.230;5.702;2023-04-26T09:55:26;9.60;99.90
23719;DHT22;43322;52.230;5.702;2023-04-26T09:57:55;9.60;99.90
23719;DHT22;43322;52.230;5.702;2023-04-26T10:00:23;9.60;99.90
23719;DHT22;43322;52.230;5.702;2023-04-26T10:02:52;9.70;99.90
23719;DHT22;43322;52.230;5.702;2023-04-26T10:05:18;9.70;99.90
23719;DHT22;43322;52.230;5.702;2023-04-26T10:07:46;9.80;99.90
23719;DHT22;43322;52.230;5.702;2023-04-26T10:10:13;9.90;99.90
23719;DHT22;43322;52.230;5.702;2023-04-26T10:12:40;9.80;99.90
23719;DHT22;43322;52.230;5.702;2023-04-26T10:15:10;9.90;99.90
23719;DHT22;43322;52.230;5.702;2023-04-26T10:17:37;9.80;99.90
23719;DHT22;43322;52.230;5.702;2023-04-26T10:20:07;9.80;99.90
23719;DHT22;43322;52.230;5.702;2023-04-26T10:22:39;9.70;99.90
23719;DHT22;43322;52.230;5.702;2023-04-26T10:25:09;9.50;99.90
23719;DHT22;43322;52.230;5.702;2023-04-26T10:27:51;9.30;99.90
23719;DHT22;43322;52.230;5.702;2023-04-26T10:30:21;9.20;99.90
23719;DHT22;43322;52.230;5.702;2023-04-26T10:33:15;9.00;99.90
23719;DHT22;43322;52.230;5.702;2023-04-26T10:36:03;8.90;99.90
23719;DHT22;43322;52.230;5.702;2023-04-26T10:38:30;8.60;99.90
23719;DHT22;43322;52.230;5.702;2023-04-26T10:41:27;8.40;99.90
23719;DHT22;43322;52.230;5.702;2023-04-26T10:43:55;8.40;99.90
23719;DHT22;43322;52.230;5.702;2023-04-26T10:46:38;8.30;99.90
23719;DHT22;43322;52.230;5.702;2023-04-26T10:49:16;8.50;99.90
23719;DHT22;43322;52.230;5.702;2023-04-26T10:52:07;8.60;99.90
23719;DHT22;43322;52.230;5.702;2023-04-26T10:54:57;8.60;99.90
23719;DHT22;43322;52.230;5.702;2023-04-26T10:57:50;8.90;99.90
23719;DHT22;43322;52.230;5.702;2023-04-26T11:00:36;8.90;99.90
23719;DHT22;43322;52.230;5.702;2023-04-26T11:03:05;9.20;99.90
23719;DHT22;43322;52.230;5.702;2023-04-26T11:05:38;9.30;99.90
23719;DHT22;43322;52.230;5.702;2023-04-26T11:08:14;9.60;99.90
23719;DHT22;43322;52.230;5.702;2023-04-26T11:10:41;9.50;99.90
23719;DHT22;43322;52.230;5.702;2023-04-26T11:13:08;9.40;99.90
23719;DHT22;43322;52.230;5.702;2023-04-26T11:15:35;9.50;99.90
23719;DHT22;43322;52.230;5.702;2023-04-26T11:18:02;9.60;99.90
23719;DHT22;43322;52.230;5.702;2023-04-26T11:20:31;9.80;99.90
23719;DHT22;43322;52.230;5.702;2023-04-26T11:22:58;9.90;99.90
23719;DHT22;43322;52.230;5.702;2023-04-26T11:25:26;9.80;99.90
23719;DHT22;43322;52.230;5.702;2023-04-26T11:28:00;9.90;99.90
23719;DHT22;43322;52.230;5.702;2023-04-26T11:30:28;10.10;99.90
23719;DHT22;43322;52.230;5.702;2023-04-26T11:32:56;10.10;99.90
23719;DHT22;43322;52.230;5.702;2023-04-26T11:35:23;10.20;99.90
23719;DHT22;43322;52.230;5.702;2023-04-26T11:37:51;10.30;99.90
23719;DHT22;43322;52.230;5.702;2023-04-26T11:40:18;10.40;99.90
23719;DHT22;43322;52.230;5.702;2023-04-26T11:42:46;10.30;99.90
23719;DHT22;43322;52.230;5.702;2023-04-26T11:45:14;10.20;99.90
23719;DHT22;43322;52.230;5.702;2023-04-26T11:47:43;10.40;99.90
23719;DHT22;43322;52.230;5.702;2023-04-26T11:50:10;10.90;99.90
23719;DHT22;43322;52.230;5.702;2023-04-26T11:52:37;11.70;99.90
23719;DHT22;43322;52.230;5.702;2023-04-26T11:55:07;12.40;99.90
23719;DHT22;43322;52.230;5.702;2023-04-26T11:57:34;12.10;99.90
23719;DHT22;43322;52.230;5.702;2023-04-26T12:00:12;11.90;99.90
23719;DHT22;43322;52.230;5.702;2023-04-26T12:02:43;11.70;99.90
23719;DHT22;43322;52.230;5.702;2023-04-26T12:05:19;11.20;99.90
23719;DHT22;43322;52.230;5.702;2023-04-26T12:07:48;11.10;99.90
23719;DHT22;43322;52.230;5.702;2023-04-26T12:10:18;10.90;99.90
23719;DHT22;43322;52.230;5.702;2023-04-26T12:12:48;10.60;99.90
23719;DHT22;43322;52.230;5.702;2023-04-26T12:15:16;10.20;99.90
23719;DHT22;43322;52.230;5.702;2023-04-26T12:17:53;10.10;99.90
23719;DHT22;43322;52.230;5.702;2023-04-26T12:20:26;10.20;99.90
23719;DHT22;43322;52.230;5.702;2023-04-26T12:23:00;10.20;99.90
23719;DHT22;43322;52.230;5.702;2023-04-26T12:25:29;10.20;99.90
23719;DHT22;43322;52.230;5.702;2023-04-26T12:27:56;10.10;99.90
23719;DHT22;43322;52.230;5.702;2023-04-26T12:30:24;10.00;99.90
23719;DHT22;43322;52.230;5.702;2023-04-26T12:32:51;10.00;99.90
23719;DHT22;43322;52.230;5.702;2023-04-26T12:35:18;10.10;99.90
23719;DHT22;43322;52.230;5.702;2023-04-26T12:37:45;9.30;99.90
23719;DHT22;43322;52.230;5.702;2023-04-26T12:40:12;10.30;99.90
23719;DHT22;43322;52.230;5.702;2023-04-26T12:42:40;10.30;99.90
23719;DHT22;43322;52.230;5.702;2023-04-26T12:45:07;10.20;99.90
23719;DHT22;43322;52.230;5.702;2023-04-26T12:47:34;10.20;99.90
23719;DHT22;43322;52.230;5.702;2023-04-26T12:50:01;10.30;99.90
23719;DHT22;43322;52.230;5.702;2023-04-26T12:52:29;10.40;99.90
23719;DHT22;43322;52.230;5.702;2023-04-26T12:54:56;10.60;99.90
23719;DHT22;43322;52.230;5.702;2023-04-26T12:57:23;10.80;99.90
23719;DHT22;43322;52.230;5.702;2023-04-26T12:59:51;11.10;99.90
23719;DHT22;43322;52.230;5.702;2023-04-26T13:02:18;11.70;99.90
23719;DHT22;43322;52.230;5.702;2023-04-26T13:04:44;13.10;99.90
23719;DHT22;43322;52.230;5.702;2023-04-26T13:07:11;13.60;99.90
23719;DHT22;43322;52.230;5.702;2023-04-26T13:09:38;14.70;99.90
23719;DHT22;43322;52.230;5.702;2023-04-26T13:12:05;15.10;99.90
23719;DHT22;43322;52.230;5.702;2023-04-26T13:14:32;15.40;99.90
23719;DHT22;43322;52.230;5.702;2023-04-26T13:17:00;15.50;99.90
23719;DHT22;43322;52.230;5.702;2023-04-26T13:19:28;15.60;99.90
23719;DHT22;43322;52.230;5.702;2023-04-26T13:21:54;15.60;92.50
23719;DHT22;43322;52.230;5.702;2023-04-26T13:24:21;14.30;97.90
23719;DHT22;43322;52.230;5.702;2023-04-26T13:26:48;14.00;99.30
23719;DHT22;43322;52.230;5.702;2023-04-26T13:29:14;13.60;99.90
23719;DHT22;43322;52.230;5.702;2023-04-26T13:31:41;13.30;99.90
23719;DHT22;43322;52.230;5.702;2023-04-26T13:34:09;13.00;99.90
23719;DHT22;43322;52.230;5.702;2023-04-26T13:36:37;12.70;97.10
23719;DHT22;43322;52.230;5.702;2023-04-26T13:39:04;12.20;99.90
23719;DHT22;43322;52.230;5.702;2023-04-26T13:41:32;11.80;99.90
23719;DHT22;43322;52.230;5.702;2023-04-26T13:43:59;11.70;99.90
23719;DHT22;43322;52.230;5.702;2023-04-26T13:46:26;11.40;99.90
23719;DHT22;43322;52.230;5.702;2023-04-26T13:48:53;11.20;99.90
23719;DHT22;43322;52.230;5.702;2023-04-26T13:51:21;11.20;99.90
23719;DHT22;43322;52.230;5.702;2023-04-26T13:53:49;10.90;99.90
23719;DHT22;43322;52.230;5.702;2023-04-26T13:56:16;10.70;99.90
23719;DHT22;43322;52.230;5.702;2023-04-26T13:58:44;10.70;99.90
23719;DHT22;43322;52.230;5.702;2023-04-26T14:01:11;10.80;99.90
23719;DHT22;43322;52.230;5.702;2023-04-26T14:03:38;10.60;99.90
23719;DHT22;43322;52.230;5.702;2023-04-26T14:06:06;10.50;99.90
23719;DHT22;43322;52.230;5.702;2023-04-26T14:08:35;10.30;99.90
23719;DHT22;43322;52.230;5.702;2023-04-26T14:11:02;10.30;99.90
23719;DHT22;43322;52.230;5.702;2023-04-26T14:13:28;10.40;99.90
23719;DHT22;43322;52.230;5.702;2023-04-26T14:15:55;10.30;99.90
23719;DHT22;43322;52.230;5.702;2023-04-26T14:18:22;10.50;99.90
23719;DHT22;43322;52.230;5.702;2023-04-26T14:20:48;10.60;99.90
23719;DHT22;43322;52.230;5.702;2023-04-26T14:23:15;10.70;99.90
23719;DHT22;43322;52.230;5.702;2023-04-26T14:25:43;10.80;99.90
23719;DHT22;43322;52.230;5.702;2023-04-26T14:28:09;10.90;99.90
23719;DHT22;43322;52.230;5.702;2023-04-26T14:30:37;10.90;99.90
23719;DHT22;43322;52.230;5.702;2023-04-26T14:33:03;10.80;99.90
23719;DHT22;43322;52.230;5.702;2023-04-26T14:35:30;10.90;99.90
23719;DHT22;43322;52.230;5.702;2023-04-26T14:37:57;11.00;99.90
23719;DHT22;43322;52.230;5.702;2023-04-26T14:40:23;11.20;99.90
23719;DHT22;43322;52.230;5.702;2023-04-26T14:42:51;11.30;99.90
23719;DHT22;43322;52.230;5.702;2023-04-26T14:45:18;11.40;99.90
23719;DHT22;43322;52.230;5.702;2023-04-26T14:47:45;11.50;99.90
23719;DHT22;43322;52.230;5.702;2023-04-26T14:50:12;11.80;99.90
23719;DHT22;43322;52.230;5.702;2023-04-26T14:52:39;12.30;99.90
23719;DHT22;43322;52.230;5.702;2023-04-26T14:55:06;12.60;99.90
23719;DHT22;43322;52.230;5.702;2023-04-26T14:57:33;12.70;99.90
23719;DHT22;43322;52.230;5.702;2023-04-26T15:00:02;12.60;99.90
23719;DHT22;43322;52.230;5.702;2023-04-26T15:02:32;12.70;99.90
23719;DHT22;43322;52.230;5.702;2023-04-26T15:04:59;12.90;99.90
23719;DHT22;43322;52.230;5.702;2023-04-26T15:07:26;12.80;99.90
23719;DHT22;43322;52.230;5.702;2023-04-26T15:09:53;12.50;99.90
23719;DHT22;43322;52.230;5.702;2023-04-26T15:12:20;12.50;99.90
23719;DHT22;43322;52.230;5.702;2023-04-26T15:14:46;12.40;99.90
23719;DHT22;43322;52.230;5.702;2023-04-26T15:17:14;12.20;99.90
23719;DHT22;43322;52.230;5.702;2023-04-26T15:19:41;12.00;99.90
23719;DHT22;43322;52.230;5.702;2023-04-26T15:22:08;11.80;99.90
23719;DHT22;43322;52.230;5.702;2023-04-26T15:24:35;11.60;99.90
23719;DHT22;43322;52.230;5.702;2023-04-26T15:27:02;11.30;99.90
23719;DHT22;43322;52.230;5.702;2023-04-26T15:29:30;10.90;99.90
23719;DHT22;43322;52.230;5.702;2023-04-26T15:31:56;10.80;99.90
23719;DHT22;43322;52.230;5.702;2023-04-26T15:34:25;10.70;99.90
23719;DHT22;43322;52.230;5.702;2023-04-26T15:36:53;10.80;99.90
23719;DHT22;43322;52.230;5.702;2023-04-26T15:39:20;10.80;99.90
23719;DHT22;43322;52.230;5.702;2023-04-26T15:41:46;10.70;99.90
23719;DHT22;43322;52.230;5.702;2023-04-26T15:44:13;10.80;99.90
23719;DHT22;43322;52.230;5.702;2023-04-26T15:46:40;10.90;99.90
23719;DHT22;43322;52.230;5.702;2023-04-26T15:49:06;11.00;99.90